createdAt,value
2023-04-18T00:00:28.164Z,72.40
2023-04-18T00:02:55.834Z,72.60
2023-04-18T00:05:23.442Z,74.40
2023-04-18T00:07:51.555Z,72.60
2023-04-18T00:10:18.441Z,72.50
2023-04-18T00:12:45.297Z,72.60
2023-04-18T00:15:12.952Z,71.90
2023-04-18T00:17:40.076Z,73.30
2023-04-18T00:20:09.352Z,72.90
2023-04-18T00:22:36.639Z,72.60
2023-04-18T00:25:03.784Z,73.10
2023-04-18T00:27:30.826Z,73.40
2023-04-18T00:29:57.709Z,74.00
2023-04-18T00:32:24.680Z,76.20
2023-04-18T00:34:51.607Z,76.40
2023-04-18T00:37:19.494Z,76.90
2023-04-18T00:39:46.346Z,76.60
2023-04-18T00:42:13.246Z,77.00
2023-04-18T00:44:40.164Z,78.00
2023-04-18T00:47:07.089Z,78.40
2023-04-18T00:49:34.132Z,77.50
2023-04-18T00:52:01.027Z,78.00
2023-04-18T00:54:27.904Z,77.70
2023-04-18T00:56:54.841Z,77.00
2023-04-18T00:59:22.403Z,77.20
2023-04-18T01:01:49.359Z,77.10
2023-04-18T01:04:16.787Z,77.20
2023-04-18T01:06:45.706Z,79.10
2023-04-18T01:09:12.809Z,78.40
2023-04-18T01:11:39.743Z,78.20
2023-04-18T01:14:07.095Z,77.90
2023-04-18T01:16:37.309Z,77.90
2023-04-18T01:19:04.564Z,76.90
2023-04-18T01:21:34.025Z,77.60
2023-04-18T01:24:05.753Z,79.00
2023-04-18T01:26:32.676Z,78.20
2023-04-18T01:28:59.554Z,79.00
2023-04-18T01:31:26.415Z,80.50
2023-04-18T01:33:53.368Z,78.50
2023-04-18T01:36:20.234Z,77.00
2023-04-18T01:38:47.202Z,77.40
2023-04-18T01:41:14.040Z,76.90
2023-04-18T01:43:42.551Z,77.90
2023-04-18T01:46:09.861Z,77.60
2023-04-18T01:48:36.851Z,77.40
2023-04-18T01:51:03.845Z,79.10
2023-04-18T01:53:31.899Z,79.00
2023-04-18T01:55:58.843Z,79.50
2023-04-18T01:58:26.855Z,78.90
2023-04-18T02:00:54.208Z,79.40
2023-04-18T02:03:21.982Z,78.80
2023-04-18T02:05:49.012Z,79.20
2023-04-18T02:08:16.037Z,80.40
2023-04-18T02:10:45.002Z,79.40
2023-04-18T02:13:11.956Z,79.00
2023-04-18T02:15:38.848Z,78.80
2023-04-18T02:18:07.124Z,79.10
2023-04-18T02:20:34.171Z,78.60
2023-04-18T02:23:02.049Z,78.80
2023-04-18T02:25:30.333Z,79.10
2023-04-18T02:27:57.579Z,79.20
2023-04-18T02:30:24.799Z,78.80
2023-04-18T02:32:52.390Z,79.40
2023-04-18T02:35:19.787Z,80.30
2023-04-18T02:37:48.845Z,80.40
2023-04-18T02:40:17.426Z,80.40
2023-04-18T02:42:44.324Z,81.10
2023-04-18T02:45:14.584Z,80.40
2023-04-18T02:47:51.796Z,80.90
2023-04-18T02:50:22.787Z,80.40
2023-04-18T02:52:50.595Z,79.40
2023-04-18T02:55:19.566Z,79.90
2023-04-18T02:57:46.662Z,80.10
2023-04-18T03:00:34.420Z,80.40
2023-04-18T03:03:23.913Z,80.40
2023-04-18T03:06:13.575Z,80.40
2023-04-18T03:08:41.336Z,80.40
2023-04-18T03:11:09.154Z,80.00
2023-04-18T03:13:36.709Z,79.80
2023-04-18T03:16:04.003Z,79.20
2023-04-18T03:18:33.274Z,79.60
2023-04-18T03:21:00.876Z,79.90
2023-04-18T03:23:30.020Z,78.50
2023-04-18T03:25:57.872Z,78.40
2023-04-18T03:28:26.604Z,78.10
2023-04-18T03:30:53.805Z,77.70
2023-04-18T03:33:20.751Z,78.00
2023-04-18T03:35:51.060Z,78.80
2023-04-18T03:38:18.010Z,78.50
2023-04-18T03:40:44.941Z,78.70
2023-04-18T03:43:20.222Z,78.70
2023-04-18T03:45:47.623Z,79.20
2023-04-18T03:48:16.743Z,79.40
2023-04-18T03:50:45.548Z,79.80
2023-04-18T03:53:12.468Z,75.90
2023-04-18T03:55:39.499Z,75.40
2023-04-18T03:58:07.188Z,75.80
2023-04-18T04:00:34.781Z,76.20
2023-04-18T04:03:07.679Z,75.90
2023-04-18T04:05:34.725Z,76.40
2023-04-18T04:08:01.672Z,76.80
2023-04-18T04:10:28.608Z,77.30
2023-04-18T04:12:55.635Z,78.70
2023-04-18T04:15:23.188Z,79.40
2023-04-18T04:17:56.250Z,78.90
2023-04-18T04:20:24.985Z,77.90
2023-04-18T04:23:00.239Z,78.80
2023-04-18T04:25:31.225Z,78.90
2023-04-18T04:28:02.966Z,79.10
2023-04-18T04:30:33.846Z,80.20
2023-04-18T04:33:02.057Z,80.80
2023-04-18T04:35:29.070Z,82.00
2023-04-18T04:37:56.130Z,83.10
2023-04-18T04:40:29.625Z,84.30
2023-04-18T04:43:05.723Z,83.20
2023-04-18T04:45:39.750Z,84.10
2023-04-18T04:48:06.750Z,84.60
2023-04-18T04:50:36.273Z,86.00
2023-04-18T04:53:04.240Z,87.40
2023-04-18T04:55:32.696Z,86.80
2023-04-18T04:58:00.736Z,86.80
2023-04-18T05:00:48.106Z,86.80
2023-04-18T05:03:15.116Z,85.80
2023-04-18T05:05:42.204Z,85.60
2023-04-18T05:08:09.118Z,86.70
2023-04-18T05:10:38.761Z,85.60
2023-04-18T05:13:05.703Z,85.90
2023-04-18T05:15:32.831Z,86.20
2023-04-18T05:17:59.881Z,86.70
2023-04-18T05:20:26.800Z,86.70
2023-04-18T05:22:53.667Z,86.90
2023-04-18T05:25:20.603Z,87.70
2023-04-18T05:27:47.563Z,87.00
2023-04-18T05:30:14.764Z,87.50
2023-04-18T05:32:41.929Z,86.70
2023-04-18T05:35:09.035Z,86.50
2023-04-18T05:37:35.961Z,86.70
2023-04-18T05:40:03.552Z,87.50
2023-04-18T05:42:30.445Z,86.40
2023-04-18T05:44:57.379Z,86.70
2023-04-18T05:47:27.110Z,85.60
2023-04-18T05:49:54.755Z,86.80
2023-04-18T05:52:21.606Z,85.90
2023-04-18T05:54:48.527Z,85.10
2023-04-18T05:57:15.453Z,84.40
2023-04-18T05:59:42.582Z,85.30
2023-04-18T06:02:13.648Z,84.60
2023-04-18T06:04:42.002Z,83.70
2023-04-18T06:07:09.430Z,83.70
2023-04-18T06:09:36.453Z,84.70
2023-04-18T06:12:03.517Z,81.70
2023-04-18T06:14:30.590Z,81.10
2023-04-18T06:16:57.434Z,82.30
2023-04-18T06:19:24.399Z,80.60
2023-04-18T06:21:52.134Z,79.00
2023-04-18T06:24:19.091Z,79.90
2023-04-18T06:26:45.972Z,79.80
2023-04-18T06:29:13.024Z,81.70
2023-04-18T06:31:39.940Z,81.00
2023-04-18T06:34:06.916Z,79.90
2023-04-18T06:36:33.770Z,79.80
2023-04-18T06:39:00.894Z,80.70
2023-04-18T06:41:27.874Z,79.30
2023-04-18T06:44:03.327Z,78.20
2023-04-18T06:46:31.617Z,76.90
2023-04-18T06:48:58.799Z,77.50
2023-04-18T06:51:25.882Z,75.60
2023-04-18T06:53:53.820Z,75.80
2023-04-18T06:56:20.836Z,76.90
2023-04-18T06:58:47.931Z,76.10
2023-04-18T07:01:14.985Z,73.00
2023-04-18T07:03:42.088Z,71.60
2023-04-18T07:06:10.669Z,70.30
2023-04-18T07:08:37.597Z,69.10
2023-04-18T07:11:04.571Z,66.30
2023-04-18T07:13:31.549Z,63.20
2023-04-18T07:15:58.532Z,60.30
2023-04-18T07:18:36.672Z,50.20
2023-04-18T07:21:07.689Z,47.80
2023-04-18T07:23:54.211Z,48.20
2023-04-18T07:26:21.112Z,46.50
2023-04-18T07:28:48.029Z,41.80
2023-04-18T07:31:16.786Z,37.90
2023-04-18T07:33:44.037Z,38.10
2023-04-18T07:36:11.195Z,34.20
2023-04-18T07:38:38.204Z,37.20
2023-04-18T07:41:05.230Z,32.40
2023-04-18T07:43:32.230Z,31.70
2023-04-18T07:45:59.161Z,28.00
2023-04-18T07:48:26.116Z,23.30
2023-04-18T07:50:53.318Z,19.50
2023-04-18T07:53:20.420Z,18.70
2023-04-18T07:55:47.250Z,18.80
2023-04-18T07:58:14.225Z,22.80
2023-04-18T08:00:42.735Z,20.70
2023-04-18T08:03:13.194Z,17.80
2023-04-18T08:05:40.788Z,16.90
2023-04-18T08:08:07.981Z,14.20
2023-04-18T08:10:35.103Z,12.40
2023-04-18T08:13:02.412Z,11.30
2023-04-18T08:15:29.418Z,12.30
2023-04-18T08:17:56.426Z,9.40
2023-04-18T08:20:23.447Z,5.90
2023-04-18T08:25:24.368Z,1.00
2023-04-18T08:27:51.274Z,1.10
2023-04-18T08:30:18.226Z,1.00
2023-04-18T08:32:45.173Z,1.00
2023-04-18T08:35:12.108Z,1.00
2023-04-18T08:37:39.187Z,1.00
2023-04-18T08:40:07.500Z,1.00
2023-04-18T08:42:34.462Z,1.00
2023-04-18T08:45:01.625Z,1.00
2023-04-18T08:47:31.574Z,1.00
2023-04-18T08:49:58.732Z,1.00
2023-04-18T08:52:26.170Z,1.00
2023-04-18T08:54:53.431Z,1.00
2023-04-18T08:57:38.322Z,1.00
2023-04-18T09:00:08.520Z,1.00
2023-04-18T09:02:47.231Z,1.00
2023-04-18T09:05:15.108Z,1.00
2023-04-18T09:07:42.258Z,1.00
2023-04-18T09:10:10.066Z,1.00
2023-04-18T09:12:46.479Z,1.00
2023-04-18T09:15:14.399Z,1.00
2023-04-18T09:17:42.686Z,3.60
2023-04-18T09:20:13.230Z,4.50
2023-04-18T09:22:46.282Z,7.20
2023-04-18T09:25:23.841Z,8.40
2023-04-18T09:27:50.840Z,11.10
2023-04-18T09:30:30.686Z,10.80
2023-04-18T09:32:59.355Z,12.70
2023-04-18T09:35:26.921Z,13.10
2023-04-18T09:37:53.863Z,12.30
2023-04-18T09:40:20.924Z,14.60
2023-04-18T09:42:50.971Z,13.70
2023-04-18T09:45:18.158Z,13.70
2023-04-18T09:47:45.200Z,14.50
2023-04-18T09:50:12.169Z,15.50
2023-04-18T09:52:40.067Z,16.60
2023-04-18T09:55:14.549Z,17.30
2023-04-18T09:57:42.679Z,18.70
2023-04-18T10:00:27.950Z,18.10
2023-04-18T10:02:59.429Z,18.80
2023-04-18T10:05:27.341Z,19.40
2023-04-18T10:07:54.620Z,18.90
2023-04-18T10:10:21.602Z,17.20
2023-04-18T10:12:48.868Z,16.40
2023-04-18T10:15:16.187Z,16.20
2023-04-18T10:17:56.003Z,16.70
2023-04-18T10:20:24.057Z,18.50
2023-04-18T10:22:51.262Z,17.50
2023-04-18T10:25:41.735Z,16.00
2023-04-18T10:28:09.002Z,15.80
2023-04-18T10:30:41.736Z,15.40
2023-04-18T10:33:31.859Z,16.80
2023-04-18T10:36:20.795Z,15.80
2023-04-18T10:38:49.522Z,16.70
2023-04-18T10:41:19.298Z,15.20
2023-04-18T10:44:06.256Z,14.50
2023-04-18T10:46:33.700Z,13.90
2023-04-18T10:49:16.752Z,13.90
2023-04-18T10:51:46.764Z,14.30
2023-04-18T10:54:17.482Z,13.40
2023-04-18T10:56:54.265Z,15.40
2023-04-18T10:59:22.501Z,15.30
2023-04-18T11:01:49.564Z,15.80
2023-04-18T11:04:16.951Z,16.40
2023-04-18T11:06:50.670Z,16.50
2023-04-18T11:09:17.642Z,16.40
2023-04-18T11:11:44.583Z,16.50
2023-04-18T11:14:11.701Z,16.60
2023-04-18T11:16:38.886Z,16.40
2023-04-18T11:19:19.805Z,16.50
2023-04-18T11:21:46.776Z,17.00
2023-04-18T11:24:20.410Z,14.80
2023-04-18T11:26:47.352Z,14.20
2023-04-18T11:29:14.204Z,12.60
2023-04-18T11:31:41.820Z,12.60
2023-04-18T11:34:08.713Z,13.80
2023-04-18T11:36:38.177Z,14.30
2023-04-18T11:39:06.305Z,15.20
2023-04-18T11:41:33.186Z,15.40
2023-04-18T11:44:01.586Z,15.10
2023-04-18T11:46:37.455Z,15.70
2023-04-18T11:49:04.350Z,16.00
2023-04-18T11:51:31.683Z,16.50
2023-04-18T11:53:58.657Z,16.40
2023-04-18T11:56:25.595Z,16.50
2023-04-18T11:58:52.482Z,17.00
2023-04-18T12:01:23.053Z,17.40
2023-04-18T12:04:10.399Z,17.20
2023-04-18T12:06:46.993Z,16.90
2023-04-18T12:09:14.475Z,18.00
2023-04-18T12:11:41.718Z,19.50
2023-04-18T12:14:21.928Z,19.40
2023-04-18T12:16:49.553Z,19.50
2023-04-18T12:19:17.248Z,19.30
2023-04-18T12:21:57.381Z,19.10
2023-04-18T12:24:25.370Z,19.00
2023-04-18T12:26:52.561Z,19.50
2023-04-18T12:29:19.480Z,20.90
2023-04-18T12:31:47.096Z,20.00
2023-04-18T12:34:14.325Z,19.80
2023-04-18T12:36:42.244Z,18.10
2023-04-18T12:39:09.902Z,17.20
2023-04-18T12:41:36.956Z,17.20
2023-04-18T12:44:04.230Z,18.30
2023-04-18T12:46:31.560Z,17.50
2023-04-18T12:48:58.555Z,17.80
2023-04-18T12:51:26.686Z,18.80
2023-04-18T12:53:53.682Z,18.90
2023-04-18T12:56:21.233Z,19.50
2023-04-18T12:58:48.218Z,19.00
2023-04-18T13:01:15.400Z,18.90
2023-04-18T13:03:42.495Z,19.40
2023-04-18T13:06:09.571Z,20.30
2023-04-18T13:08:37.705Z,21.80
2023-04-18T13:11:04.679Z,22.20
2023-04-18T13:13:32.568Z,21.00
2023-04-18T13:16:00.877Z,21.10
2023-04-18T13:18:27.791Z,22.60
2023-04-18T13:20:56.866Z,22.20
2023-04-18T13:23:23.806Z,21.00
2023-04-18T13:25:50.844Z,19.50
2023-04-18T13:28:17.904Z,20.50
2023-04-18T13:30:44.947Z,19.80
2023-04-18T13:33:11.911Z,19.30
2023-04-18T13:35:38.918Z,21.20
2023-04-18T13:38:05.926Z,21.00
2023-04-18T13:40:33.661Z,21.10
2023-04-18T13:43:00.635Z,21.00
2023-04-18T13:45:27.669Z,20.40
2023-04-18T13:47:54.640Z,20.00
2023-04-18T13:50:21.719Z,20.50
2023-04-18T13:52:49.496Z,19.60
2023-04-18T13:55:17.025Z,18.80
2023-04-18T13:57:43.863Z,20.20
2023-04-18T14:00:13.310Z,19.70
2023-04-18T14:02:40.805Z,20.00
2023-04-18T14:05:08.151Z,20.70
2023-04-18T14:07:35.534Z,20.80
2023-04-18T14:10:02.455Z,21.10
2023-04-18T14:12:29.325Z,20.40
2023-04-18T14:14:56.191Z,20.00
2023-04-18T14:17:23.043Z,18.90
2023-04-18T14:19:51.555Z,18.30
2023-04-18T14:22:18.466Z,17.90
2023-04-18T14:24:45.637Z,18.50
2023-04-18T14:27:12.878Z,18.80
2023-04-18T14:29:40.578Z,19.20
2023-04-18T14:32:07.573Z,18.20
2023-04-18T14:34:36.650Z,19.10
2023-04-18T14:37:04.550Z,18.20
2023-04-18T14:39:31.622Z,19.80
2023-04-18T14:41:58.605Z,18.60
2023-04-18T14:44:25.670Z,18.10
2023-04-18T14:46:52.546Z,17.80
2023-04-18T14:49:19.387Z,17.00
2023-04-18T14:51:46.263Z,17.20
2023-04-18T14:54:13.255Z,17.20
2023-04-18T14:56:40.162Z,17.20
2023-04-18T14:59:07.026Z,16.80
2023-04-18T15:01:33.991Z,17.30
2023-04-18T15:04:01.183Z,16.20
2023-04-18T15:06:28.580Z,16.20
2023-04-18T15:08:55.550Z,16.90
2023-04-18T15:11:23.276Z,18.10
2023-04-18T15:13:50.780Z,18.60
2023-04-18T15:16:17.825Z,19.60
2023-04-18T15:18:45.240Z,19.50
2023-04-18T15:21:12.184Z,19.90
2023-04-18T15:23:39.068Z,19.60
2023-04-18T15:26:06.667Z,20.00
2023-04-18T15:28:33.587Z,22.00
2023-04-18T15:31:00.514Z,21.00
2023-04-18T15:33:27.464Z,22.50
2023-04-18T15:35:55.198Z,21.80
2023-04-18T15:38:22.304Z,24.20
2023-04-18T15:40:49.284Z,23.70
2023-04-18T15:43:17.364Z,24.30
2023-04-18T15:45:44.797Z,24.10
2023-04-18T15:48:13.283Z,25.00
2023-04-18T15:50:40.559Z,24.00
2023-04-18T15:53:07.433Z,24.70
2023-04-18T15:55:34.556Z,23.50
2023-04-18T15:58:01.764Z,23.70
2023-04-18T16:00:28.931Z,24.60
2023-04-18T16:02:55.931Z,23.70
2023-04-18T16:05:22.834Z,24.20
2023-04-18T16:07:49.894Z,24.70
2023-04-18T16:10:16.811Z,23.40
2023-04-18T16:12:43.890Z,25.10
2023-04-18T16:15:11.115Z,23.70
2023-04-18T16:17:38.052Z,23.70
2023-04-18T16:20:06.474Z,24.30
2023-04-18T16:22:33.633Z,23.40
2023-04-18T16:25:00.546Z,24.20
2023-04-18T16:27:27.518Z,24.70
2023-04-18T16:29:54.460Z,24.50
2023-04-18T16:32:21.514Z,24.80
2023-04-18T16:34:48.679Z,26.30
2023-04-18T16:37:15.740Z,27.00
2023-04-18T16:39:42.686Z,28.20
2023-04-18T16:42:09.574Z,28.30
2023-04-18T16:44:36.416Z,28.80
2023-04-18T16:47:05.190Z,28.40
2023-04-18T16:49:32.185Z,27.20
2023-04-18T16:51:59.117Z,28.30
2023-04-18T16:54:26.077Z,27.70
2023-04-18T16:56:53.135Z,29.60
2023-04-18T16:59:19.979Z,28.50
2023-04-18T17:01:47.014Z,27.40
2023-04-18T17:04:14.922Z,28.20
2023-04-18T17:06:43.663Z,28.00
2023-04-18T17:09:13.576Z,26.40
2023-04-18T17:11:41.251Z,27.20
2023-04-18T17:14:11.741Z,26.40
2023-04-18T17:16:39.114Z,26.50
2023-04-18T17:19:06.108Z,26.50
2023-04-18T17:21:33.936Z,26.50
2023-04-18T17:24:03.817Z,26.60
2023-04-18T17:26:31.010Z,26.60
2023-04-18T17:28:57.908Z,26.50
2023-04-18T17:31:24.948Z,26.60
2023-04-18T17:33:51.948Z,24.80
2023-04-18T17:36:18.842Z,25.10
2023-04-18T17:38:49.031Z,25.70
2023-04-18T17:41:16.398Z,26.40
2023-04-18T17:43:43.653Z,26.50
2023-04-18T17:46:10.681Z,26.40
2023-04-18T17:48:37.893Z,27.00
2023-04-18T17:51:04.800Z,27.30
2023-04-18T17:53:32.352Z,26.30
2023-04-18T17:55:59.633Z,26.90
2023-04-18T17:58:26.715Z,27.80
2023-04-18T18:00:53.817Z,27.70
2023-04-18T18:03:21.005Z,27.10
2023-04-18T18:05:48.479Z,27.40
2023-04-18T18:08:15.439Z,27.70
2023-04-18T18:10:42.835Z,27.00
2023-04-18T18:13:09.727Z,28.00
2023-04-18T18:15:36.756Z,28.50
2023-04-18T18:18:03.749Z,30.00
2023-04-18T18:20:31.038Z,29.00
2023-04-18T18:22:59.956Z,29.80
2023-04-18T18:25:27.674Z,29.00
2023-04-18T18:27:55.183Z,29.50
2023-04-18T18:30:22.089Z,30.10
2023-04-18T18:32:49.658Z,30.80
2023-04-18T18:35:16.600Z,31.80
2023-04-18T18:37:43.513Z,32.60
2023-04-18T18:40:10.604Z,33.00
2023-04-18T18:42:37.561Z,34.10
2023-04-18T18:45:04.901Z,34.40
2023-04-18T18:47:31.800Z,35.00
2023-04-18T18:49:58.731Z,37.60
2023-04-18T18:52:28.190Z,38.50
2023-04-18T18:54:55.248Z,39.50
2023-04-18T18:57:22.280Z,40.50
2023-04-18T18:59:53.357Z,41.90
2023-04-18T19:02:22.319Z,42.60
2023-04-18T19:04:49.523Z,44.20
2023-04-18T19:07:16.526Z,45.00
2023-04-18T19:09:43.387Z,45.90
2023-04-18T19:12:10.453Z,47.20
2023-04-18T19:14:37.333Z,48.40
2023-04-18T19:17:05.569Z,48.60
2023-04-18T19:19:32.414Z,48.80
2023-04-18T19:22:01.221Z,49.50
2023-04-18T19:24:28.158Z,49.90
2023-04-18T19:26:55.063Z,50.40
2023-04-18T19:29:22.250Z,51.00
2023-04-18T19:31:49.279Z,51.00
2023-04-18T19:34:18.995Z,51.00
2023-04-18T19:36:45.916Z,51.00
2023-04-18T19:39:12.993Z,51.00
2023-04-18T19:41:41.622Z,53.20
2023-04-18T19:44:08.445Z,53.80
2023-04-18T19:46:35.534Z,54.70
2023-04-18T19:49:02.585Z,57.20
2023-04-18T19:51:29.660Z,58.40
2023-04-18T19:53:56.580Z,62.70
2023-04-18T19:56:23.550Z,63.00
2023-04-18T19:58:51.190Z,63.00
2023-04-18T20:01:21.432Z,63.70
2023-04-18T20:03:48.606Z,64.90
2023-04-18T20:06:16.014Z,64.80
2023-04-18T20:08:42.952Z,65.40
2023-04-18T20:11:10.108Z,65.30
2023-04-18T20:13:37.650Z,65.20
2023-04-18T20:16:04.990Z,65.00
2023-04-18T20:18:36.108Z,64.90
2023-04-18T20:21:03.398Z,64.40
2023-04-18T20:23:30.274Z,64.20
2023-04-18T20:25:57.281Z,63.60
2023-04-18T20:28:24.168Z,63.30
2023-04-18T20:30:51.060Z,63.20
2023-04-18T20:33:17.986Z,62.20
2023-04-18T20:35:44.899Z,61.40
2023-04-18T20:38:12.448Z,61.10
2023-04-18T20:40:39.861Z,60.20
2023-04-18T20:43:09.446Z,60.50
2023-04-18T20:45:37.740Z,60.00
2023-04-18T20:48:04.649Z,60.00
2023-04-18T20:50:31.844Z,59.60
2023-04-18T20:53:00.513Z,58.50
2023-04-18T20:55:27.450Z,58.10
2023-04-18T20:57:54.296Z,58.50
2023-04-18T21:00:21.204Z,57.30
2023-04-18T21:02:48.320Z,57.60
2023-04-18T21:05:15.338Z,58.80
2023-04-18T21:07:44.035Z,59.70
2023-04-18T21:10:12.217Z,60.40
2023-04-18T21:12:39.108Z,60.90
2023-04-18T21:15:06.280Z,61.80
2023-04-18T21:17:33.215Z,62.80
2023-04-18T21:20:00.332Z,63.30
2023-04-18T21:22:27.380Z,63.60
2023-04-18T21:24:54.260Z,63.60
2023-04-18T21:27:21.167Z,64.10
2023-04-18T21:29:48.142Z,62.90
2023-04-18T21:32:15.053Z,63.50
2023-04-18T21:34:41.918Z,63.70
2023-04-18T21:37:08.827Z,64.60
2023-04-18T21:39:35.700Z,64.50
2023-04-18T21:42:03.215Z,64.30
2023-04-18T21:44:30.348Z,64.20
2023-04-18T21:46:57.268Z,64.70
2023-04-18T21:49:24.615Z,65.30
2023-04-18T21:51:51.458Z,65.90
2023-04-18T21:54:18.343Z,66.60
2023-04-18T21:56:45.218Z,66.70
2023-04-18T21:59:12.066Z,67.40
2023-04-18T22:01:39.331Z,68.00
2023-04-18T22:04:06.483Z,68.30
2023-04-18T22:06:33.581Z,68.40
2023-04-18T22:09:01.143Z,69.50
2023-04-18T22:11:28.745Z,69.70
2023-04-18T22:13:58.198Z,69.20
2023-04-18T22:16:25.192Z,70.20
2023-04-18T22:18:52.164Z,71.20
2023-04-18T22:21:19.128Z,73.70
2023-04-18T22:23:46.036Z,73.20
2023-04-18T22:26:12.949Z,75.00
2023-04-18T22:28:39.947Z,75.40
2023-04-18T22:31:06.887Z,76.50
2023-04-18T22:33:33.907Z,77.00
2023-04-18T22:36:00.941Z,77.50
2023-04-18T22:38:27.882Z,77.70
2023-04-18T22:40:54.739Z,78.10
2023-04-18T22:43:23.839Z,79.10
2023-04-18T22:45:51.132Z,79.70
2023-04-18T22:48:18.134Z,80.60
2023-04-18T22:50:46.445Z,82.90
2023-04-18T22:53:14.456Z,83.50
2023-04-18T22:55:41.497Z,84.60
2023-04-18T22:58:08.568Z,85.00
2023-04-18T23:00:35.483Z,87.20
2023-04-18T23:03:02.607Z,87.50
2023-04-18T23:05:29.786Z,88.50
2023-04-18T23:07:59.642Z,89.30
2023-04-18T23:10:27.321Z,90.10
2023-04-18T23:12:54.172Z,90.90
2023-04-18T23:15:23.102Z,90.90
2023-04-18T23:17:53.229Z,91.30
2023-04-18T23:20:20.421Z,91.40
2023-04-18T23:22:50.196Z,91.30
2023-04-18T23:25:17.518Z,91.70
2023-04-18T23:27:44.398Z,91.90
2023-04-18T23:30:11.519Z,92.00
2023-04-18T23:32:38.405Z,92.40
2023-04-18T23:35:06.170Z,92.90
2023-04-18T23:37:33.104Z,93.60
2023-04-18T23:40:00.168Z,93.70
2023-04-18T23:42:27.483Z,93.80
2023-04-18T23:44:54.744Z,94.00
2023-04-18T23:47:22.077Z,94.20
2023-04-18T23:49:48.974Z,94.50
2023-04-18T23:52:15.898Z,94.50
2023-04-18T23:54:42.896Z,94.60
2023-04-18T23:57:09.718Z,94.90
2023-04-18T23:59:36.711Z,95.00
